Spaceon02064 — ASD — position and weather

sailwx.info

Track history (hours):
 
Tides and Currents Weather Stations Pressure Air Temp Water Temp Dewpoint Dewpoint Depression Visibility Wind Speed Wind Dir Waves Ship Positions

Spaceon02064

Last reported at 2015-Mar-01 12:33 UTC. Time now 2015-Mar-01 12:39 UTC.
Position N 31°22' E 121°43'.

Length 6 m.

Type: Ship. MMSI: 200902064.

Date/timePositionNaut miles runAvg speedWind from/ knotsBaromVisibWave heightAir tempDewpointWater temp
2015-Mar-01 12:33N 31°22' E 121°43'0 0.0
2015-Mar-01 11:33N 31°22' E 121°43'1026.6
2015-Mar-01 11:11N 31°21' E 121°32'1015.6
2015-Mar-01 10:33N 31°22' E 121°43'12308.1
2015-Mar-01 10:31N 31°22' E 121°30'1364.2
2015-Mar-01 10:19N 31°32' E 121°20'2330.3
2015-Mar-01 09:33N 31°22' E 121°43'13108.8
2015-Mar-01 09:27N 31°26' E 121°29'114.2
2015-Mar-01 09:24N 31°26' E 121°29'1315.5
2015-Mar-01 08:33N 31°22' E 121°43'13112.6
2015-Mar-01 08:26N 31°26' E 121°29'1314.8
2015-Mar-01 07:33N 31°22' E 121°43'22761.8
2015-Mar-01 07:32N 31°32' E 121°20'2223.1
2015-Mar-01 06:33N 31°22' E 121°43'0 0.0
2015-Mar-01 05:33N 31°22' E 121°43'13214.2
2015-Mar-01 05:30N 31°26' E 121°29'36647.6
2015-Mar-01 05:26N 31°48' E 120°55'4955.2
2015-Mar-01 04:33N 31°22' E 121°43'0 0.0
2015-Mar-01 03:33N 31°22' E 121°43'13168.8
2015-Mar-01 03:29N 31°26' E 121°29'1314.0
2015-Mar-01 02:33N 31°22' E 121°43'132345.4
2015-Mar-01 02:33N 31°26' E 121°29'4715333.6
2015-Mar-01 02:33N 31°59' E 120°50'5959.5
2015-Mar-01 01:33N 31°22' E 121°43'6315188.7
2015-Mar-01 01:33N 32°00' E 120°44'6363.5
2015-Mar-01 00:33N 31°22' E 121°43'68244402.2
2015-Mar-01 00:33N 31°60' E 120°37'563513.4
2015-Mar-01 00:32N 31°26' E 121°29'2 2.2
2015-Feb-28 23:33N 31°24' E 121°31'113007.0
2015-Feb-28 23:33N 31°22' E 121°43'0 0.0
2015-Feb-28 22:33N 31°22' E 121°43'0 0.0
2015-Feb-28 21:33N 31°22' E 121°43'818611.3
2015-Feb-28 21:33N 31°57' E 120°17'8182.2
2015-Feb-28 20:33N 31°22' E 121°43'8610023.7
2015-Feb-28 20:33N 31°56' E 120°10'8687.0
2015-Feb-28 19:33N 31°22' E 121°43'9213280.2
2015-Feb-28 19:33N 31°57' E 120°03'9292.6
2015-Feb-28 18:33N 31°22' E 121°43'0 0.0
2015-Feb-28 17:33N 31°22' E 121°43'0 0.0
2015-Feb-28 16:33N 31°22' E 121°43'1313.1
2015-Feb-28 15:33N 31°22' E 121°28'1347034.6
2015-Feb-28 15:33N 31°22' E 121°43'1313.1
2015-Feb-28 14:33N 31°22' E 121°28'1347034.6
2015-Feb-28 14:33N 31°22' E 121°43'1841.5
2015-Feb-28 14:07N 31°09' E 121°27'1222.3
2015-Feb-28 13:33N 31°22' E 121°28'10990.9
2015-Feb-28 13:33N 31°11' E 121°28'1616.4
2015-Feb-28 12:33N 31°22' E 121°43'132613.0
2015-Feb-28 12:33N 31°22' E 121°28'0 0.0
2015-Feb-28 11:33N 31°22' E 121°28'134275.9
2015-Feb-28 11:33N 31°22' E 121°43'10284.1
2015-Feb-28 11:31N 31°17' E 121°34'7 7.4
2015-Feb-28 10:33N 31°22' E 121°28'1347034.5
2015-Feb-28 10:33N 31°22' E 121°43'1313.1
2015-Feb-28 09:33N 31°22' E 121°28'1323517.3
2015-Feb-28 09:33N 31°22' E 121°43'512.8
2015-Feb-28 09:11N 31°23' E 121°38'813.6
2015-Feb-28 08:33N 31°22' E 121°28'133919.5
2015-Feb-28 08:33N 31°22' E 121°43'113824.2
2015-Feb-28 08:33N 31°24' E 121°31'4 3.9
2015-Feb-28 07:33N 31°22' E 121°28'1313.0
2015-Feb-28 06:33N 31°22' E 121°43'132361.0
2015-Feb-28 06:33N 31°22' E 121°28'0 0.0
2015-Feb-28 05:33N 31°22' E 121°28'1011435.7
2015-Feb-28 05:33N 31°22' E 121°39'7 7.3
2015-Feb-28 04:33N 31°25' E 121°31'4784.8
2015-Feb-28 04:33N 31°22' E 121°28'0 0.0
2015-Feb-28 03:33N 31°22' E 121°28'8169.9
2015-Feb-28 03:31N 31°29' E 121°26'8 8.5
2015-Feb-28 02:33N 31°22' E 121°28'1346984.9
2015-Feb-28 02:33N 31°34' E 121°22'4 4.3
2015-Feb-28 01:33N 31°38' E 121°22'1717.0
2015-Feb-28 00:33N 31°22' E 121°28'1864712.8
2015-Feb-28 00:33N 31°39' E 121°21'1818.0
2015-Feb-27 23:33N 31°22' E 121°28'1864836.0
2015-Feb-27 23:33N 31°39' E 121°21'39317.1
2015-Feb-27 23:26N 32°04' E 120°45'3945.1
2015-Feb-27 22:33N 31°39' E 121°21'181117.9
2015-Feb-27 22:32N 31°22' E 121°28'0 0.0
2015-Feb-27 21:33N 31°22' E 121°28'0 0.0
2015-Feb-27 20:33N 31°22' E 121°28'0 0.0
2015-Feb-27 19:33N 31°22' E 121°28'1864836.0
2015-Feb-27 19:33N 31°39' E 121°21'1818.0
2015-Feb-27 18:33N 31°22' E 121°28'1864836.0
2015-Feb-27 18:33N 31°39' E 121°21'0 0.0
2015-Feb-27 17:33N 31°39' E 121°21'1864836.0
2015-Feb-27 17:33N 31°22' E 121°28'1818.0
2015-Feb-27 16:33N 31°39' E 121°21'18463.0
2015-Feb-27 16:31N 31°22' E 121°28'1818.7
2015-Feb-27 15:33N 31°39' E 121°21'185894.2
2015-Feb-27 15:33N 31°22' E 121°28'1818.1
2015-Feb-27 14:33N 31°39' E 121°21'183412.4
2015-Feb-27 14:33N 31°22' E 121°28'0 0.0
2015-Feb-27 13:33N 31°22' E 121°28'185403.0
2015-Feb-27 13:33N 31°39' E 121°21'1818.1
2015-Feb-27 12:33N 31°22' E 121°28'1864836.0
2015-Feb-27 12:33N 31°39' E 121°21'0 0.0
2015-Feb-27 11:33N 31°39' E 121°21'183600.9
2015-Feb-27 11:33N 31°22' E 121°28'0 0.0
2015-Feb-27 10:33N 31°22' E 121°28'185894.2
2015-Feb-27 10:33N 31°39' E 121°21'3 9.5
2015-Feb-27 10:13N 31°38' E 121°17'1928.4
2015-Feb-27 09:33N 31°22' E 121°28'1527737.2
2015-Feb-27 09:33N 31°35' E 121°19'1515.4
2015-Feb-27 08:33N 31°22' E 121°28'1864836.0
2015-Feb-27 08:33N 31°39' E 121°21'0 0.0
2015-Feb-27 07:33N 31°39' E 121°21'1347134.4
2015-Feb-27 07:33N 31°27' E 121°29'61089.6
2015-Feb-27 07:33N 31°22' E 121°28'8236.2
2015-Feb-27 07:31N 31°29' E 121°25'1010.4
2015-Feb-27 06:33N 31°39' E 121°21'173118.0
2015-Feb-27 06:33N 31°23' E 121°30'3176.3
2015-Feb-27 06:32N 31°22' E 121°28'0 0.0
2015-Feb-27 05:33N 31°22' E 121°28'1832407.8
2015-Feb-27 05:33N 31°39' E 121°21'0 0.0
2015-Feb-27 04:33N 31°39' E 121°21'28103.8
2015-Feb-27 04:17N 31°12' E 121°29'1013.8
2015-Feb-27 03:33N 31°22' E 121°28'1832418.0
2015-Feb-27 03:33N 31°39' E 121°21'1818.0
2015-Feb-27 02:33N 31°22' E 121°28'185399.6
2015-Feb-27 02:33N 31°39' E 121°21'1818.3
2015-Feb-27 01:33N 31°21' E 121°27'185469.0
2015-Feb-27 01:33N 31°39' E 121°21'1818.3
2015-Feb-27 00:33N 31°21' E 121°27'0 0.0
2015-Feb-26 23:33N 31°21' E 121°27'1865732.2
2015-Feb-26 23:33N 31°39' E 121°21'0 0.0
2015-Feb-26 22:33N 31°39' E 121°21'31399.6
2015-Feb-26 22:29N 31°08' E 121°27'3133.1
2015-Feb-26 21:33N 31°39' E 121°21'0 0.0
2015-Feb-26 20:33N 31°39' E 121°21'0 0.0
2015-Feb-26 19:33N 31°39' E 121°21'0 0.0
2015-Feb-26 18:33N 31°39' E 121°21'0 0.0
2015-Feb-26 17:33N 31°39' E 121°21'0 0.0
2015-Feb-26 16:33N 31°39' E 121°21'0 0.0
2015-Feb-26 15:33N 31°39' E 121°21'0 0.0
2015-Feb-26 14:33N 31°39' E 121°21'0 0.0
2015-Feb-26 13:33N 31°39' E 121°21'0 0.0
2015-Feb-26 12:33N 31°39' E 121°21'0 0.0
2015-Feb-26 11:33N 31°39' E 121°21'0 0.0
2015-Feb-26 10:33N 31°39' E 121°21'0 0.0
2015-Feb-26 09:33N 31°39' E 121°21'0 0.0
2015-Feb-26 08:33N 31°39' E 121°21'1896.5
2015-Feb-26 08:22N 31°21' E 121°27'1822.5
2015-Feb-26 07:33N 31°39' E 121°21'0 0.0
2015-Feb-26 06:33N 31°39' E 121°21'0 0.0
2015-Feb-26 05:33N 31°39' E 121°21'181659.8
2015-Feb-26 05:33N 31°22' E 121°28'0 0.0
2015-Feb-26 04:33N 31°22' E 121°28'1832377.0
2015-Feb-26 04:33N 31°39' E 121°21'0 0.0
2015-Feb-26 03:33N 31°39' E 121°21'189247.7
2015-Feb-26 03:33N 31°22' E 121°28'0 0.0
2015-Feb-26 02:33N 31°22' E 121°28'1821584.6
2015-Feb-26 02:33N 31°39' E 121°21'1818.0
2015-Feb-26 01:33N 31°22' E 121°28'1864733.6
2015-Feb-26 01:33N 31°39' E 121°21'0 0.0
2015-Feb-26 00:33N 31°39' E 121°21'0 0.0
2015-Feb-25 23:33N 31°39' E 121°21'18115.8
2015-Feb-25 23:24N 31°22' E 121°28'1821.3
2015-Feb-25 22:33N 31°39' E 121°21'181703.5
2015-Feb-25 22:33N 31°22' E 121°28'1818.2
2015-Feb-25 21:33N 31°39' E 121°21'183235.7
2015-Feb-25 21:33N 31°22' E 121°28'1 1.4
2015-Feb-25 20:33N 31°22' E 121°29'1864522.1
2015-Feb-25 20:33N 31°39' E 121°21'0 0.0
2015-Feb-25 19:33N 31°39' E 121°21'16595.4
2015-Feb-25 19:32N 31°24' E 121°31'1616.8
2015-Feb-25 18:33N 31°39' E 121°21'161511.0
2015-Feb-25 18:33N 31°24' E 121°31'1616.6
2015-Feb-25 17:33N 31°39' E 121°21'0 0.0
2015-Feb-25 16:33N 31°39' E 121°21'16297.7
2015-Feb-25 16:30N 31°24' E 121°31'1617.4
2015-Feb-25 15:33N 31°39' E 121°21'922.1
2015-Feb-25 15:08N 31°29' E 121°24'916.7
2015-Feb-25 14:33N 31°39' E 121°21'0 0.0
2015-Feb-25 13:33N 31°39' E 121°21'0 0.0
2015-Feb-25 12:33N 31°39' E 121°21'0 0.0
2015-Feb-25 11:33N 31°39' E 121°21'0 0.0
2015-Feb-25 10:33N 31°39' E 121°21'0 0.0
2015-Feb-25 09:33N 31°39' E 121°21'0 0.0
2015-Feb-25 08:33N 31°39' E 121°21'0 0.0
2015-Feb-25 07:33N 31°39' E 121°21'2292.1
2015-Feb-25 07:19N 31°47' E 120°56'2229.5
2015-Feb-25 06:33N 31°39' E 121°21'27569.7
2015-Feb-25 06:31N 31°52' E 120°53'2728.6
2015-Feb-25 05:34N 31°39' E 121°21'332333.7
2015-Feb-25 05:33N 31°59' E 120°50'3333.5
2015-Feb-25 04:33N 31°39' E 121°21'0 0.0
2015-Feb-25 03:33N 31°39' E 121°21'0 0.0
2015-Feb-25 02:33N 31°39' E 121°21'0 0.0
2015-Feb-25 01:33N 31°39' E 121°21'54830.9
2015-Feb-25 01:30N 31°59' E 120°21'5458.1
2015-Feb-25 00:33N 31°39' E 121°21'0 0.0
2015-Feb-24 23:34N 31°39' E 121°21'54223.0
2015-Feb-24 23:19N 31°59' E 120°21'5472.0
2015-Feb-24 22:34N 31°39' E 121°21'3525407.5
2015-Feb-24 22:33N 32°01' E 120°48'2588442.5
2015-Feb-24 22:33N 31°58' E 120°20'5655.6
2015-Feb-24 21:34N 31°39' E 121°21'59106664.3
2015-Feb-24 21:33N 31°56' E 120°14'34580.3
2015-Feb-24 21:30N 31°51' E 120°54'2627.9
2015-Feb-24 20:33N 31°39' E 121°21'0 0.0
2015-Feb-24 19:34N 31°39' E 121°21'0 0.0
2015-Feb-24 18:34N 31°39' E 121°21'0 0.0
2015-Feb-24 17:34N 31°39' E 121°21'0 0.0
2015-Feb-24 16:33N 31°39' E 121°21'0 0.0
2015-Feb-24 15:34N 31°39' E 121°21'0 0.0
2015-Feb-24 14:34N 31°39' E 121°21'0 0.0
2015-Feb-24 13:34N 31°39' E 121°21'2921112.3
2015-Feb-24 13:33N 31°10' E 121°28'2929.4
2015-Feb-24 12:34N 31°39' E 121°21'0 0.0
2015-Feb-24 11:33N 31°39' E 121°21'0 0.0
2015-Feb-24 10:34N 31°39' E 121°21'0 0.0
2015-Feb-24 09:34N 31°39' E 121°21'0 0.0
2015-Feb-24 08:33N 31°39' E 121°21'0 0.0
2015-Feb-24 07:34N 31°39' E 121°21'0 0.0
2015-Feb-24 06:33N 31°39' E 121°21'0 0.0
2015-Feb-24 05:33N 31°39' E 121°21'0 0.0
2015-Feb-24 04:33N 31°39' E 121°21'0 0.0
2015-Feb-24 03:34N 31°39' E 121°21'0 0.0
2015-Feb-24 02:33N 31°39' E 121°21'0 0.0
2015-Feb-24 01:33N 31°39' E 121°21'0 0.0
2015-Feb-24 00:34N 31°39' E 121°21'0 0.0
2015-Feb-23 23:33N 31°39' E 121°21'0 0.0
2015-Feb-23 22:34N 31°39' E 121°21'0 0.0
2015-Feb-23 21:34N 31°39' E 121°21'0 0.0
2015-Feb-23 20:33N 31°39' E 121°21'0 0.0
2015-Feb-23 19:34N 31°39' E 121°21'0 0.0
2015-Feb-23 18:34N 31°39' E 121°21'0 0.0
2015-Feb-23 17:34N 31°39' E 121°21'0 0.0
2015-Feb-23 16:34N 31°39' E 121°21'0 0.0
2015-Feb-23 15:33N 31°39' E 121°21'0 0.0
2015-Feb-23 14:34N 31°39' E 121°21'0 0.0
2015-Feb-23 13:33N 31°39' E 121°21'0 0.0
2015-Feb-23 12:34N 31°39' E 121°21'0 0.0
2015-Feb-23 11:33N 31°39' E 121°21'0 0.0
2015-Feb-23 10:33N 31°39' E 121°21'0 0.0
2015-Feb-23 09:34N 31°39' E 121°21'0 0.0
2015-Feb-23 08:33N 31°39' E 121°21'0 0.0
2015-Feb-23 07:33N 31°39' E 121°21'0 0.0
2015-Feb-23 06:33N 31°39' E 121°21'0 0.0
2015-Feb-23 05:33N 31°39' E 121°21'0 0.0
2015-Feb-23 04:33N 31°39' E 121°21'0 0.0
2015-Feb-23 03:33N 31°39' E 121°21'0 0.0
2015-Feb-23 02:33N 31°39' E 121°21'0 0.0
2015-Feb-23 01:33N 31°39' E 121°21'0 0.0
2015-Feb-23 00:33N 31°39' E 121°21'0 0.0
2015-Feb-22 22:33N 31°39' E 121°21'0 0.0
2015-Feb-22 21:33N 31°39' E 121°21'0 0.0
2015-Feb-22 20:33N 31°39' E 121°21'0 0.0
2015-Feb-22 19:33N 31°39' E 121°21'0 0.0
2015-Feb-22 18:33N 31°39' E 121°21'0 0.0
2015-Feb-22 17:33N 31°39' E 121°21'0 0.0
2015-Feb-22 16:33N 31°39' E 121°21'0 0.0
2015-Feb-22 15:33N 31°39' E 121°21'0 0.0
2015-Feb-22 14:33N 31°39' E 121°21'0 0.0
2015-Feb-22 13:33N 31°39' E 121°21'0 0.0
2015-Feb-22 12:33N 31°39' E 121°21'0 0.0
2015-Feb-22 11:33N 31°39' E 121°21'0 0.0
2015-Feb-22 10:33N 31°39' E 121°21'0 0.0
2015-Feb-22 09:33N 31°39' E 121°21'0 0.0
2015-Feb-22 08:33N 31°39' E 121°21'0 0.0
2015-Feb-22 07:33N 31°39' E 121°21'0 0.0
2015-Feb-22 06:33N 31°39' E 121°21'0 0.0
2015-Feb-22 05:33N 31°39' E 121°21'0 0.0
2015-Feb-22 04:33N 31°39' E 121°21'0 0.0
2015-Feb-22 03:33N 31°39' E 121°21'0 0.0
2015-Feb-22 02:33N 31°39' E 121°21'0 0.0
2015-Feb-22 01:33N 31°39' E 121°21'0 0.0
2015-Feb-22 00:33N 31°39' E 121°21'0 0.0
2015-Feb-21 23:33N 31°39' E 121°21'0 0.0
2015-Feb-21 22:33N 31°39' E 121°21'0 0.0
2015-Feb-21 21:33N 31°39' E 121°21'0 0.0
2015-Feb-21 20:33N 31°39' E 121°21'0 0.0
2015-Feb-21 19:33N 31°39' E 121°21'0 0.0
2015-Feb-21 18:33N 31°39' E 121°21'0 0.0
2015-Feb-21 17:33N 31°39' E 121°21'0 0.0
2015-Feb-21 16:33N 31°39' E 121°21'0 0.0
2015-Feb-21 15:33N 31°39' E 121°21'0 0.0
2015-Feb-21 14:33N 31°39' E 121°21'0 0.0
2015-Feb-21 13:33N 31°39' E 121°21'0 0.0
2015-Feb-21 12:33N 31°39' E 121°21'0 0.0
2015-Feb-21 11:33N 31°39' E 121°21'0 0.0
2015-Feb-21 10:33N 31°39' E 121°21'0 0.0
2015-Feb-21 09:33N 31°39' E 121°21'0 0.0
2015-Feb-21 08:33N 31°39' E 121°21'0 0.0
2015-Feb-21 07:33N 31°39' E 121°21'0 0.0
2015-Feb-21 06:33N 31°39' E 121°21'0 0.0
2015-Feb-21 05:33N 31°39' E 121°21'314039.3
2015-Feb-21 05:33N 31°08' E 121°28'3131.7
2015-Feb-21 04:33N 31°39' E 121°21'2592.7
2015-Feb-21 04:17N 31°15' E 121°30'2534.1
2015-Feb-21 03:33N 31°39' E 121°21'0 0.0
2015-Feb-21 02:33N 31°39' E 121°21'1983.4
2015-Feb-21 02:20N 31°22' E 121°30'1923.8
2015-Feb-21 01:33N 31°39' E 121°21'0 0.0
2015-Feb-21 00:33N 31°39' E 121°21'0 0.0
2015-Feb-20 23:33N 31°39' E 121°21'0 0.0
2015-Feb-20 22:33N 31°39' E 121°21'0 0.0
2015-Feb-20 21:33N 31°39' E 121°21'0 0.0
2015-Feb-20 20:33N 31°39' E 121°21'0 0.0
2015-Feb-20 19:33N 31°39' E 121°21'0 0.0
2015-Feb-20 18:33N 31°39' E 121°21'0 0.0
2015-Feb-20 17:33N 31°39' E 121°21'0 0.0
2015-Feb-20 16:33N 31°39' E 121°21'0 0.0
2015-Feb-20 15:33N 31°39' E 121°21'0 0.0
2015-Feb-20 14:33N 31°39' E 121°21'0 0.0
2015-Feb-20 13:33N 31°39' E 121°21'0 0.0
2015-Feb-20 12:33N 31°39' E 121°21'0 0.0
2015-Feb-20 11:33N 31°39' E 121°21'0 0.0
2015-Feb-20 10:33N 31°39' E 121°21'0 0.0
2015-Feb-20 09:33N 31°39' E 121°21'0 0.0
2015-Feb-20 08:33N 31°39' E 121°21'0 0.0
2015-Feb-20 07:34N 31°39' E 121°21'0 0.0
2015-Feb-20 06:33N 31°39' E 121°21'0 0.0
2015-Feb-20 05:33N 31°39' E 121°21'0 0.0
2015-Feb-20 04:33N 31°39' E 121°21'0 0.0
2015-Feb-20 03:34N 31°39' E 121°21'0 0.0
2015-Feb-20 02:33N 31°39' E 121°21'0 0.0
2015-Feb-20 01:33N 31°39' E 121°21'0 0.0
2015-Feb-20 00:33N 31°39' E 121°21'0 0.0
2015-Feb-19 23:33N 31°39' E 121°21'0 0.0
2015-Feb-19 22:34N 31°39' E 121°21'0 0.0
2015-Feb-19 21:34N 31°39' E 121°21'0 0.0
2015-Feb-19 20:33N 31°39' E 121°21'0 0.0
2015-Feb-19 19:33N 31°39' E 121°21'0 0.0
2015-Feb-19 18:34N 31°39' E 121°21'0 0.0
2015-Feb-19 17:34N 31°39' E 121°21'0 0.0
2015-Feb-19 16:34N 31°39' E 121°21'0 0.0
2015-Feb-19 15:33N 31°39' E 121°21'0 0.0
2015-Feb-19 14:34N 31°39' E 121°21'0 0.0
2015-Feb-19 13:33N 31°39' E 121°21'  
Track history (hours):
 
Tides and Currents Weather Stations Pressure Air Temp Water Temp Dewpoint Dewpoint Depression Visibility Wind Speed Wind Dir Waves Ship Positions

Spaceon02064

Last reported at 2015-Mar-01 12:33 UTC. Time now 2015-Mar-01 12:39 UTC.
Position N 31°22' E 121°43'.

Length 6 m.

Type: Ship. MMSI: 200902064.

Date/timePositionNaut miles runAvg speedWind from/ knotsBaromVisibWave heightAir tempDewpointWater temp
2015-Mar-01 12:33N 31°22' E 121°43'0 0.0
2015-Mar-01 11:33N 31°22' E 121°43'1026.6
2015-Mar-01 11:11N 31°21' E 121°32'1015.6
2015-Mar-01 10:33N 31°22' E 121°43'12308.1
2015-Mar-01 10:31N 31°22' E 121°30'1364.2
2015-Mar-01 10:19N 31°32' E 121°20'2330.3
2015-Mar-01 09:33N 31°22' E 121°43'13108.8
2015-Mar-01 09:27N 31°26' E 121°29'114.2
2015-Mar-01 09:24N 31°26' E 121°29'1315.5
2015-Mar-01 08:33N 31°22' E 121°43'13112.6
2015-Mar-01 08:26N 31°26' E 121°29'1314.8
2015-Mar-01 07:33N 31°22' E 121°43'22761.8
2015-Mar-01 07:32N 31°32' E 121°20'2223.1
2015-Mar-01 06:33N 31°22' E 121°43'0 0.0
2015-Mar-01 05:33N 31°22' E 121°43'13214.2
2015-Mar-01 05:30N 31°26' E 121°29'36647.6
2015-Mar-01 05:26N 31°48' E 120°55'4955.2
2015-Mar-01 04:33N 31°22' E 121°43'0 0.0
2015-Mar-01 03:33N 31°22' E 121°43'13168.8
2015-Mar-01 03:29N 31°26' E 121°29'1314.0
2015-Mar-01 02:33N 31°22' E 121°43'132345.4
2015-Mar-01 02:33N 31°26' E 121°29'4715333.6
2015-Mar-01 02:33N 31°59' E 120°50'5959.5
2015-Mar-01 01:33N 31°22' E 121°43'6315188.7
2015-Mar-01 01:33N 32°00' E 120°44'6363.5
2015-Mar-01 00:33N 31°22' E 121°43'68244402.2
2015-Mar-01 00:33N 31°60' E 120°37'563513.4
2015-Mar-01 00:32N 31°26' E 121°29'2 2.2
2015-Feb-28 23:33N 31°24' E 121°31'113007.0
2015-Feb-28 23:33N 31°22' E 121°43'0 0.0
2015-Feb-28 22:33N 31°22' E 121°43'0 0.0
2015-Feb-28 21:33N 31°22' E 121°43'818611.3
2015-Feb-28 21:33N 31°57' E 120°17'8182.2
2015-Feb-28 20:33N 31°22' E 121°43'8610023.7
2015-Feb-28 20:33N 31°56' E 120°10'8687.0
2015-Feb-28 19:33N 31°22' E 121°43'9213280.2
2015-Feb-28 19:33N 31°57' E 120°03'9292.6
2015-Feb-28 18:33N 31°22' E 121°43'0 0.0
2015-Feb-28 17:33N 31°22' E 121°43'0 0.0
2015-Feb-28 16:33N 31°22' E 121°43'1313.1
2015-Feb-28 15:33N 31°22' E 121°28'1347034.6
2015-Feb-28 15:33N 31°22' E 121°43'1313.1
2015-Feb-28 14:33N 31°22' E 121°28'1347034.6
2015-Feb-28 14:33N 31°22' E 121°43'1841.5
2015-Feb-28 14:07N 31°09' E 121°27'1222.3
2015-Feb-28 13:33N 31°22' E 121°28'10990.9
2015-Feb-28 13:33N 31°11' E 121°28'1616.4
2015-Feb-28 12:33N 31°22' E 121°43'132613.0
2015-Feb-28 12:33N 31°22' E 121°28'0 0.0
2015-Feb-28 11:33N 31°22' E 121°28'134275.9
2015-Feb-28 11:33N 31°22' E 121°43'10284.1
2015-Feb-28 11:31N 31°17' E 121°34'7 7.4
2015-Feb-28 10:33N 31°22' E 121°28'1347034.5
2015-Feb-28 10:33N 31°22' E 121°43'1313.1
2015-Feb-28 09:33N 31°22' E 121°28'1323517.3
2015-Feb-28 09:33N 31°22' E 121°43'512.8
2015-Feb-28 09:11N 31°23' E 121°38'813.6
2015-Feb-28 08:33N 31°22' E 121°28'133919.5
2015-Feb-28 08:33N 31°22' E 121°43'113824.2
2015-Feb-28 08:33N 31°24' E 121°31'4 3.9
2015-Feb-28 07:33N 31°22' E 121°28'1313.0
2015-Feb-28 06:33N 31°22' E 121°43'132361.0
2015-Feb-28 06:33N 31°22' E 121°28'0 0.0
2015-Feb-28 05:33N 31°22' E 121°28'1011435.7
2015-Feb-28 05:33N 31°22' E 121°39'7 7.3
2015-Feb-28 04:33N 31°25' E 121°31'4784.8
2015-Feb-28 04:33N 31°22' E 121°28'0 0.0
2015-Feb-28 03:33N 31°22' E 121°28'8169.9
2015-Feb-28 03:31N 31°29' E 121°26'8 8.5
2015-Feb-28 02:33N 31°22' E 121°28'1346984.9
2015-Feb-28 02:33N 31°34' E 121°22'4 4.3
2015-Feb-28 01:33N 31°38' E 121°22'1717.0
2015-Feb-28 00:33N 31°22' E 121°28'1864712.8
2015-Feb-28 00:33N 31°39' E 121°21'1818.0
2015-Feb-27 23:33N 31°22' E 121°28'1864836.0
2015-Feb-27 23:33N 31°39' E 121°21'39317.1
2015-Feb-27 23:26N 32°04' E 120°45'3945.1
2015-Feb-27 22:33N 31°39' E 121°21'181117.9
2015-Feb-27 22:32N 31°22' E 121°28'0 0.0
2015-Feb-27 21:33N 31°22' E 121°28'0 0.0
2015-Feb-27 20:33N 31°22' E 121°28'0 0.0
2015-Feb-27 19:33N 31°22' E 121°28'1864836.0
2015-Feb-27 19:33N 31°39' E 121°21'1818.0
2015-Feb-27 18:33N 31°22' E 121°28'1864836.0
2015-Feb-27 18:33N 31°39' E 121°21'0 0.0
2015-Feb-27 17:33N 31°39' E 121°21'1864836.0
2015-Feb-27 17:33N 31°22' E 121°28'1818.0
2015-Feb-27 16:33N 31°39' E 121°21'18463.0
2015-Feb-27 16:31N 31°22' E 121°28'1818.7
2015-Feb-27 15:33N 31°39' E 121°21'185894.2
2015-Feb-27 15:33N 31°22' E 121°28'1818.1
2015-Feb-27 14:33N 31°39' E 121°21'183412.4
2015-Feb-27 14:33N 31°22' E 121°28'0 0.0
2015-Feb-27 13:33N 31°22' E 121°28'185403.0
2015-Feb-27 13:33N 31°39' E 121°21'1818.1
2015-Feb-27 12:33N 31°22' E 121°28'1864836.0
2015-Feb-27 12:33N 31°39' E 121°21'0 0.0
2015-Feb-27 11:33N 31°39' E 121°21'183600.9
2015-Feb-27 11:33N 31°22' E 121°28'0 0.0
2015-Feb-27 10:33N 31°22' E 121°28'185894.2
2015-Feb-27 10:33N 31°39' E 121°21'3 9.5
2015-Feb-27 10:13N 31°38' E 121°17'1928.4
2015-Feb-27 09:33N 31°22' E 121°28'1527737.2
2015-Feb-27 09:33N 31°35' E 121°19'1515.4
2015-Feb-27 08:33N 31°22' E 121°28'1864836.0
2015-Feb-27 08:33N 31°39' E 121°21'0 0.0
2015-Feb-27 07:33N 31°39' E 121°21'1347134.4
2015-Feb-27 07:33N 31°27' E 121°29'61089.6
2015-Feb-27 07:33N 31°22' E 121°28'8236.2
2015-Feb-27 07:31N 31°29' E 121°25'1010.4
2015-Feb-27 06:33N 31°39' E 121°21'173118.0
2015-Feb-27 06:33N 31°23' E 121°30'3176.3
2015-Feb-27 06:32N 31°22' E 121°28'0 0.0
2015-Feb-27 05:33N 31°22' E 121°28'1832407.8
2015-Feb-27 05:33N 31°39' E 121°21'0 0.0
2015-Feb-27 04:33N 31°39' E 121°21'28103.8
2015-Feb-27 04:17N 31°12' E 121°29'1013.8
2015-Feb-27 03:33N 31°22' E 121°28'1832418.0
2015-Feb-27 03:33N 31°39' E 121°21'1818.0
2015-Feb-27 02:33N 31°22' E 121°28'185399.6
2015-Feb-27 02:33N 31°39' E 121°21'1818.3
2015-Feb-27 01:33N 31°21' E 121°27'185469.0
2015-Feb-27 01:33N 31°39' E 121°21'1818.3
2015-Feb-27 00:33N 31°21' E 121°27'0 0.0
2015-Feb-26 23:33N 31°21' E 121°27'1865732.2
2015-Feb-26 23:33N 31°39' E 121°21'0 0.0
2015-Feb-26 22:33N 31°39' E 121°21'31399.6
2015-Feb-26 22:29N 31°08' E 121°27'3133.1
2015-Feb-26 21:33N 31°39' E 121°21'0 0.0
2015-Feb-26 20:33N 31°39' E 121°21'0 0.0
2015-Feb-26 19:33N 31°39' E 121°21'0 0.0
2015-Feb-26 18:33N 31°39' E 121°21'0 0.0
2015-Feb-26 17:33N 31°39' E 121°21'0 0.0
2015-Feb-26 16:33N 31°39' E 121°21'0 0.0
2015-Feb-26 15:33N 31°39' E 121°21'0 0.0
2015-Feb-26 14:33N 31°39' E 121°21'0 0.0
2015-Feb-26 13:33N 31°39' E 121°21'0 0.0
2015-Feb-26 12:33N 31°39' E 121°21'0 0.0
2015-Feb-26 11:33N 31°39' E 121°21'0 0.0
2015-Feb-26 10:33N 31°39' E 121°21'0 0.0
2015-Feb-26 09:33N 31°39' E 121°21'0 0.0
2015-Feb-26 08:33N 31°39' E 121°21'1896.5
2015-Feb-26 08:22N 31°21' E 121°27'1822.5
2015-Feb-26 07:33N 31°39' E 121°21'0 0.0
2015-Feb-26 06:33N 31°39' E 121°21'0 0.0
2015-Feb-26 05:33N 31°39' E 121°21'181659.8
2015-Feb-26 05:33N 31°22' E 121°28'0 0.0
2015-Feb-26 04:33N 31°22' E 121°28'1832377.0
2015-Feb-26 04:33N 31°39' E 121°21'0 0.0
2015-Feb-26 03:33N 31°39' E 121°21'189247.7
2015-Feb-26 03:33N 31°22' E 121°28'0 0.0
2015-Feb-26 02:33N 31°22' E 121°28'1821584.6
2015-Feb-26 02:33N 31°39' E 121°21'1818.0
2015-Feb-26 01:33N 31°22' E 121°28'1864733.6
2015-Feb-26 01:33N 31°39' E 121°21'0 0.0
2015-Feb-26 00:33N 31°39' E 121°21'0 0.0
2015-Feb-25 23:33N 31°39' E 121°21'18115.8
2015-Feb-25 23:24N 31°22' E 121°28'1821.3
2015-Feb-25 22:33N 31°39' E 121°21'181703.5
2015-Feb-25 22:33N 31°22' E 121°28'1818.2
2015-Feb-25 21:33N 31°39' E 121°21'183235.7
2015-Feb-25 21:33N 31°22' E 121°28'1 1.4
2015-Feb-25 20:33N 31°22' E 121°29'1864522.1
2015-Feb-25 20:33N 31°39' E 121°21'0 0.0
2015-Feb-25 19:33N 31°39' E 121°21'16595.4
2015-Feb-25 19:32N 31°24' E 121°31'1616.8
2015-Feb-25 18:33N 31°39' E 121°21'161511.0
2015-Feb-25 18:33N 31°24' E 121°31'1616.6
2015-Feb-25 17:33N 31°39' E 121°21'0 0.0
2015-Feb-25 16:33N 31°39' E 121°21'16297.7
2015-Feb-25 16:30N 31°24' E 121°31'1617.4
2015-Feb-25 15:33N 31°39' E 121°21'922.1
2015-Feb-25 15:08N 31°29' E 121°24'916.7
2015-Feb-25 14:33N 31°39' E 121°21'0 0.0
2015-Feb-25 13:33N 31°39' E 121°21'0 0.0
2015-Feb-25 12:33N 31°39' E 121°21'0 0.0
2015-Feb-25 11:33N 31°39' E 121°21'0 0.0
2015-Feb-25 10:33N 31°39' E 121°21'0 0.0
2015-Feb-25 09:33N 31°39' E 121°21'0 0.0
2015-Feb-25 08:33N 31°39' E 121°21'0 0.0
2015-Feb-25 07:33N 31°39' E 121°21'2292.1
2015-Feb-25 07:19N 31°47' E 120°56'2229.5
2015-Feb-25 06:33N 31°39' E 121°21'27569.7
2015-Feb-25 06:31N 31°52' E 120°53'2728.6
2015-Feb-25 05:34N 31°39' E 121°21'332333.7
2015-Feb-25 05:33N 31°59' E 120°50'3333.5
2015-Feb-25 04:33N 31°39' E 121°21'0 0.0
2015-Feb-25 03:33N 31°39' E 121°21'0 0.0
2015-Feb-25 02:33N 31°39' E 121°21'0 0.0
2015-Feb-25 01:33N 31°39' E 121°21'54830.9
2015-Feb-25 01:30N 31°59' E 120°21'5458.1
2015-Feb-25 00:33N 31°39' E 121°21'0 0.0
2015-Feb-24 23:34N 31°39' E 121°21'54223.0
2015-Feb-24 23:19N 31°59' E 120°21'5472.0
2015-Feb-24 22:34N 31°39' E 121°21'3525407.5
2015-Feb-24 22:33N 32°01' E 120°48'2588442.5
2015-Feb-24 22:33N 31°58' E 120°20'5655.6
2015-Feb-24 21:34N 31°39' E 121°21'59106664.3
2015-Feb-24 21:33N 31°56' E 120°14'34580.3
2015-Feb-24 21:30N 31°51' E 120°54'2627.9
2015-Feb-24 20:33N 31°39' E 121°21'0 0.0
2015-Feb-24 19:34N 31°39' E 121°21'0 0.0
2015-Feb-24 18:34N 31°39' E 121°21'0 0.0
2015-Feb-24 17:34N 31°39' E 121°21'0 0.0
2015-Feb-24 16:33N 31°39' E 121°21'0 0.0
2015-Feb-24 15:34N 31°39' E 121°21'0 0.0
2015-Feb-24 14:34N 31°39' E 121°21'0 0.0
2015-Feb-24 13:34N 31°39' E 121°21'2921112.3
2015-Feb-24 13:33N 31°10' E 121°28'2929.4
2015-Feb-24 12:34N 31°39' E 121°21'0 0.0
2015-Feb-24 11:33N 31°39' E 121°21'0 0.0
2015-Feb-24 10:34N 31°39' E 121°21'0 0.0
2015-Feb-24 09:34N 31°39' E 121°21'0 0.0
2015-Feb-24 08:33N 31°39' E 121°21'0 0.0
2015-Feb-24 07:34N 31°39' E 121°21'0 0.0
2015-Feb-24 06:33N 31°39' E 121°21'0 0.0
2015-Feb-24 05:33N 31°39' E 121°21'0 0.0
2015-Feb-24 04:33N 31°39' E 121°21'0 0.0
2015-Feb-24 03:34N 31°39' E 121°21'0 0.0
2015-Feb-24 02:33N 31°39' E 121°21'0 0.0
2015-Feb-24 01:33N 31°39' E 121°21'0 0.0
2015-Feb-24 00:34N 31°39' E 121°21'0 0.0
2015-Feb-23 23:33N 31°39' E 121°21'0 0.0
2015-Feb-23 22:34N 31°39' E 121°21'0 0.0
2015-Feb-23 21:34N 31°39' E 121°21'0 0.0
2015-Feb-23 20:33N 31°39' E 121°21'0 0.0
2015-Feb-23 19:34N 31°39' E 121°21'0 0.0
2015-Feb-23 18:34N 31°39' E 121°21'0 0.0
2015-Feb-23 17:34N 31°39' E 121°21'0 0.0
2015-Feb-23 16:34N 31°39' E 121°21'0 0.0
2015-Feb-23 15:33N 31°39' E 121°21'0 0.0
2015-Feb-23 14:34N 31°39' E 121°21'0 0.0
2015-Feb-23 13:33N 31°39' E 121°21'0 0.0
2015-Feb-23 12:34N 31°39' E 121°21'0 0.0
2015-Feb-23 11:33N 31°39' E 121°21'0 0.0
2015-Feb-23 10:33N 31°39' E 121°21'0 0.0
2015-Feb-23 09:34N 31°39' E 121°21'0 0.0
2015-Feb-23 08:33N 31°39' E 121°21'0 0.0
2015-Feb-23 07:33N 31°39' E 121°21'0 0.0
2015-Feb-23 06:33N 31°39' E 121°21'0 0.0
2015-Feb-23 05:33N 31°39' E 121°21'0 0.0
2015-Feb-23 04:33N 31°39' E 121°21'0 0.0
2015-Feb-23 03:33N 31°39' E 121°21'0 0.0
2015-Feb-23 02:33N 31°39' E 121°21'0 0.0
2015-Feb-23 01:33N 31°39' E 121°21'0 0.0
2015-Feb-23 00:33N 31°39' E 121°21'0 0.0
2015-Feb-22 22:33N 31°39' E 121°21'0 0.0
2015-Feb-22 21:33N 31°39' E 121°21'0 0.0
2015-Feb-22 20:33N 31°39' E 121°21'0 0.0
2015-Feb-22 19:33N 31°39' E 121°21'0 0.0
2015-Feb-22 18:33N 31°39' E 121°21'0 0.0
2015-Feb-22 17:33N 31°39' E 121°21'0 0.0
2015-Feb-22 16:33N 31°39' E 121°21'0 0.0
2015-Feb-22 15:33N 31°39' E 121°21'0 0.0
2015-Feb-22 14:33N 31°39' E 121°21'0 0.0
2015-Feb-22 13:33N 31°39' E 121°21'0 0.0
2015-Feb-22 12:33N 31°39' E 121°21'0 0.0
2015-Feb-22 11:33N 31°39' E 121°21'0 0.0
2015-Feb-22 10:33N 31°39' E 121°21'0 0.0
2015-Feb-22 09:33N 31°39' E 121°21'0 0.0
2015-Feb-22 08:33N 31°39' E 121°21'0 0.0
2015-Feb-22 07:33N 31°39' E 121°21'0 0.0
2015-Feb-22 06:33N 31°39' E 121°21'0 0.0
2015-Feb-22 05:33N 31°39' E 121°21'0 0.0
2015-Feb-22 04:33N 31°39' E 121°21'0 0.0
2015-Feb-22 03:33N 31°39' E 121°21'0 0.0
2015-Feb-22 02:33N 31°39' E 121°21'0 0.0
2015-Feb-22 01:33N 31°39' E 121°21'0 0.0
2015-Feb-22 00:33N 31°39' E 121°21'0 0.0
2015-Feb-21 23:33N 31°39' E 121°21'0 0.0
2015-Feb-21 22:33N 31°39' E 121°21'0 0.0
2015-Feb-21 21:33N 31°39' E 121°21'0 0.0
2015-Feb-21 20:33N 31°39' E 121°21'0 0.0
2015-Feb-21 19:33N 31°39' E 121°21'0 0.0
2015-Feb-21 18:33N 31°39' E 121°21'0 0.0
2015-Feb-21 17:33N 31°39' E 121°21'0 0.0
2015-Feb-21 16:33N 31°39' E 121°21'0 0.0
2015-Feb-21 15:33N 31°39' E 121°21'0 0.0
2015-Feb-21 14:33N 31°39' E 121°21'0 0.0
2015-Feb-21 13:33N 31°39' E 121°21'0 0.0
2015-Feb-21 12:33N 31°39' E 121°21'0 0.0
2015-Feb-21 11:33N 31°39' E 121°21'0 0.0
2015-Feb-21 10:33N 31°39' E 121°21'0 0.0
2015-Feb-21 09:33N 31°39' E 121°21'0 0.0
2015-Feb-21 08:33N 31°39' E 121°21'0 0.0
2015-Feb-21 07:33N 31°39' E 121°21'0 0.0
2015-Feb-21 06:33N 31°39' E 121°21'0 0.0
2015-Feb-21 05:33N 31°39' E 121°21'314039.3
2015-Feb-21 05:33N 31°08' E 121°28'3131.7
2015-Feb-21 04:33N 31°39' E 121°21'2592.7
2015-Feb-21 04:17N 31°15' E 121°30'2534.1
2015-Feb-21 03:33N 31°39' E 121°21'0 0.0
2015-Feb-21 02:33N 31°39' E 121°21'1983.4
2015-Feb-21 02:20N 31°22' E 121°30'1923.8
2015-Feb-21 01:33N 31°39' E 121°21'0 0.0
2015-Feb-21 00:33N 31°39' E 121°21'0 0.0
2015-Feb-20 23:33N 31°39' E 121°21'0 0.0
2015-Feb-20 22:33N 31°39' E 121°21'0 0.0
2015-Feb-20 21:33N 31°39' E 121°21'0 0.0
2015-Feb-20 20:33N 31°39' E 121°21'0 0.0
2015-Feb-20 19:33N 31°39' E 121°21'0 0.0
2015-Feb-20 18:33N 31°39' E 121°21'0 0.0
2015-Feb-20 17:33N 31°39' E 121°21'0 0.0
2015-Feb-20 16:33N 31°39' E 121°21'0 0.0
2015-Feb-20 15:33N 31°39' E 121°21'0 0.0
2015-Feb-20 14:33N 31°39' E 121°21'0 0.0
2015-Feb-20 13:33N 31°39' E 121°21'0 0.0
2015-Feb-20 12:33N 31°39' E 121°21'0 0.0
2015-Feb-20 11:33N 31°39' E 121°21'0 0.0
2015-Feb-20 10:33N 31°39' E 121°21'0 0.0
2015-Feb-20 09:33N 31°39' E 121°21'0 0.0
2015-Feb-20 08:33N 31°39' E 121°21'0 0.0
2015-Feb-20 07:34N 31°39' E 121°21'0 0.0
2015-Feb-20 06:33N 31°39' E 121°21'0 0.0
2015-Feb-20 05:33N 31°39' E 121°21'0 0.0
2015-Feb-20 04:33N 31°39' E 121°21'0 0.0
2015-Feb-20 03:34N 31°39' E 121°21'0 0.0
2015-Feb-20 02:33N 31°39' E 121°21'0 0.0
2015-Feb-20 01:33N 31°39' E 121°21'0 0.0
2015-Feb-20 00:33N 31°39' E 121°21'0 0.0
2015-Feb-19 23:33N 31°39' E 121°21'0 0.0
2015-Feb-19 22:34N 31°39' E 121°21'0 0.0
2015-Feb-19 21:34N 31°39' E 121°21'0 0.0
2015-Feb-19 20:33N 31°39' E 121°21'0 0.0
2015-Feb-19 19:33N 31°39' E 121°21'0 0.0
2015-Feb-19 18:34N 31°39' E 121°21'0 0.0
2015-Feb-19 17:34N 31°39' E 121°21'0 0.0
2015-Feb-19 16:34N 31°39' E 121°21'0 0.0
2015-Feb-19 15:33N 31°39' E 121°21'0 0.0
2015-Feb-19 14:34N 31°39' E 121°21'0 0.0
2015-Feb-19 13:33N 31°39' E 121°21'  

Dump ship's entire track history